sensor_id;sensor_type;location;lat;lon;timestamp;P1;durP1;ratioP1;P2;durP2;ratioP2
19879;SDS011;10102;50.828;4.416;2023-11-22T00:02:20;25.20;;;16.25;;
19879;SDS011;10102;50.828;4.416;2023-11-22T00:04:46;25.52;;;15.93;;
19879;SDS011;10102;50.828;4.416;2023-11-22T00:07:12;26.98;;;15.70;;
19879;SDS011;10102;50.828;4.416;2023-11-22T00:09:37;27.20;;;16.42;;
19879;SDS011;10102;50.828;4.416;2023-11-22T00:12:03;28.42;;;15.65;;
19879;SDS011;10102;50.828;4.416;2023-11-22T00:14:29;26.35;;;15.77;;
19879;SDS011;10102;50.828;4.416;2023-11-22T00:16:55;24.30;;;16.10;;
19879;SDS011;10102;50.828;4.416;2023-11-22T00:19:21;26.60;;;15.77;;
19879;SDS011;10102;50.828;4.416;2023-11-22T00:21:48;32.40;;;16.17;;
19879;SDS011;10102;50.828;4.416;2023-11-22T00:24:14;30.90;;;16.70;;
19879;SDS011;10102;50.828;4.416;2023-11-22T00:26:40;28.17;;;16.77;;
19879;SDS011;10102;50.828;4.416;2023-11-22T00:29:06;27.15;;;16.42;;
19879;SDS011;10102;50.828;4.416;2023-11-22T00:31:33;32.15;;;17.45;;
19879;SDS011;10102;50.828;4.416;2023-11-22T00:33:59;28.58;;;17.23;;
19879;SDS011;10102;50.828;4.416;2023-11-22T00:36:24;31.45;;;17.40;;
19879;SDS011;10102;50.828;4.416;2023-11-22T00:38:50;30.38;;;17.08;;
19879;SDS011;10102;50.828;4.416;2023-11-22T00:41:16;28.02;;;17.10;;
19879;SDS011;10102;50.828;4.416;2023-11-22T00:43:42;27.27;;;16.50;;
19879;SDS011;10102;50.828;4.416;2023-11-22T00:46:07;29.17;;;17.80;;
19879;SDS011;10102;50.828;4.416;2023-11-22T00:48:34;29.65;;;17.88;;
19879;SDS011;10102;50.828;4.416;2023-11-22T00:51:00;30.08;;;17.60;;
19879;SDS011;10102;50.828;4.416;2023-11-22T00:53:32;29.05;;;16.70;;
19879;SDS011;10102;50.828;4.416;2023-11-22T00:55:58;29.08;;;16.65;;
19879;SDS011;10102;50.828;4.416;2023-11-22T00:58:24;31.75;;;17.23;;
19879;SDS011;10102;50.828;4.416;2023-11-22T01:00:49;31.17;;;16.77;;
19879;SDS011;10102;50.828;4.416;2023-11-22T01:03:15;31.27;;;17.58;;
19879;SDS011;10102;50.828;4.416;2023-11-22T01:05:41;31.23;;;17.75;;
19879;SDS011;10102;50.828;4.416;2023-11-22T01:08:07;38.60;;;16.58;;
19879;SDS011;10102;50.828;4.416;2023-11-22T01:10:33;30.42;;;17.45;;
19879;SDS011;10102;50.828;4.416;2023-11-22T01:12:58;29.50;;;16.20;;
19879;SDS011;10102;50.828;4.416;2023-11-22T01:15:24;27.75;;;16.27;;
19879;SDS011;10102;50.828;4.416;2023-11-22T01:17:50;28.45;;;17.00;;
19879;SDS011;10102;50.828;4.416;2023-11-22T01:20:16;32.83;;;17.33;;
19879;SDS011;10102;50.828;4.416;2023-11-22T01:22:41;27.10;;;16.02;;
19879;SDS011;10102;50.828;4.416;2023-11-22T01:25:07;28.65;;;16.25;;
19879;SDS011;10102;50.828;4.416;2023-11-22T01:27:33;28.77;;;15.20;;
19879;SDS011;10102;50.828;4.416;2023-11-22T01:29:59;29.20;;;16.38;;
19879;SDS011;10102;50.828;4.416;2023-11-22T01:32:24;31.25;;;17.00;;
19879;SDS011;10102;50.828;4.416;2023-11-22T01:34:50;28.23;;;16.75;;
19879;SDS011;10102;50.828;4.416;2023-11-22T01:37:16;31.38;;;16.77;;
19879;SDS011;10102;50.828;4.416;2023-11-22T01:39:41;33.28;;;16.80;;
19879;SDS011;10102;50.828;4.416;2023-11-22T01:42:08;28.77;;;16.48;;
19879;SDS011;10102;50.828;4.416;2023-11-22T01:44:34;30.13;;;16.38;;
19879;SDS011;10102;50.828;4.416;2023-11-22T01:47:00;29.10;;;17.73;;
19879;SDS011;10102;50.828;4.416;2023-11-22T01:49:28;30.20;;;17.35;;
19879;SDS011;10102;50.828;4.416;2023-11-22T01:51:54;32.38;;;17.77;;
19879;SDS011;10102;50.828;4.416;2023-11-22T01:54:21;28.52;;;17.60;;
19879;SDS011;10102;50.828;4.416;2023-11-22T01:56:48;28.52;;;16.83;;
19879;SDS011;10102;50.828;4.416;2023-11-22T01:59:15;30.80;;;16.20;;
19879;SDS011;10102;50.828;4.416;2023-11-22T02:01:42;32.78;;;17.23;;
19879;SDS011;10102;50.828;4.416;2023-11-22T02:04:08;32.50;;;17.05;;
19879;SDS011;10102;50.828;4.416;2023-11-22T02:06:34;31.00;;;16.35;;
19879;SDS011;10102;50.828;4.416;2023-11-22T02:09:00;31.67;;;17.15;;
19879;SDS011;10102;50.828;4.416;2023-11-22T02:11:26;30.35;;;17.42;;
19879;SDS011;10102;50.828;4.416;2023-11-22T02:13:52;31.77;;;17.33;;
19879;SDS011;10102;50.828;4.416;2023-11-22T02:16:18;31.17;;;16.95;;
19879;SDS011;10102;50.828;4.416;2023-11-22T02:18:45;27.60;;;16.23;;
19879;SDS011;10102;50.828;4.416;2023-11-22T02:21:12;31.98;;;17.02;;
19879;SDS011;10102;50.828;4.416;2023-11-22T02:23:40;33.72;;;18.85;;
19879;SDS011;10102;50.828;4.416;2023-11-22T02:26:07;32.22;;;17.48;;
19879;SDS011;10102;50.828;4.416;2023-11-22T02:28:33;30.95;;;17.13;;
19879;SDS011;10102;50.828;4.416;2023-11-22T02:30:59;33.95;;;17.88;;
19879;SDS011;10102;50.828;4.416;2023-11-22T02:33:25;30.77;;;18.08;;
19879;SDS011;10102;50.828;4.416;2023-11-22T02:35:51;34.38;;;18.10;;
19879;SDS011;10102;50.828;4.416;2023-11-22T02:38:16;31.50;;;17.95;;
19879;SDS011;10102;50.828;4.416;2023-11-22T02:40:45;29.73;;;17.23;;
19879;SDS011;10102;50.828;4.416;2023-11-22T02:43:11;29.75;;;16.15;;
19879;SDS011;10102;50.828;4.416;2023-11-22T02:45:37;31.67;;;18.55;;
19879;SDS011;10102;50.828;4.416;2023-11-22T02:48:04;31.65;;;17.20;;
19879;SDS011;10102;50.828;4.416;2023-11-22T02:50:34;35.90;;;17.20;;
19879;SDS011;10102;50.828;4.416;2023-11-22T02:53:00;31.25;;;16.70;;
19879;SDS011;10102;50.828;4.416;2023-11-22T02:55:27;29.52;;;17.77;;
19879;SDS011;10102;50.828;4.416;2023-11-22T02:57:52;29.38;;;17.42;;
19879;SDS011;10102;50.828;4.416;2023-11-22T03:00:18;29.55;;;17.15;;
19879;SDS011;10102;50.828;4.416;2023-11-22T03:02:47;31.42;;;18.02;;
19879;SDS011;10102;50.828;4.416;2023-11-22T03:05:19;30.30;;;17.17;;
19879;SDS011;10102;50.828;4.416;2023-11-22T03:07:48;30.55;;;16.65;;
19879;SDS011;10102;50.828;4.416;2023-11-22T03:10:16;34.22;;;17.40;;
19879;SDS011;10102;50.828;4.416;2023-11-22T03:12:43;26.50;;;15.25;;
19879;SDS011;10102;50.828;4.416;2023-11-22T03:15:09;27.90;;;17.10;;
19879;SDS011;10102;50.828;4.416;2023-11-22T03:17:35;30.45;;;17.10;;
19879;SDS011;10102;50.828;4.416;2023-11-22T03:20:03;28.33;;;17.33;;
19879;SDS011;10102;50.828;4.416;2023-11-22T03:22:34;33.88;;;16.95;;
19879;SDS011;10102;50.828;4.416;2023-11-22T03:25:01;28.65;;;17.15;;
19879;SDS011;10102;50.828;4.416;2023-11-22T03:27:27;27.05;;;16.13;;
19879;SDS011;10102;50.828;4.416;2023-11-22T03:29:53;29.25;;;16.58;;
19879;SDS011;10102;50.828;4.416;2023-11-22T03:32:18;31.83;;;17.50;;
19879;SDS011;10102;50.828;4.416;2023-11-22T03:34:45;32.33;;;17.33;;
19879;SDS011;10102;50.828;4.416;2023-11-22T03:37:11;34.53;;;17.67;;
19879;SDS011;10102;50.828;4.416;2023-11-22T03:39:36;28.73;;;16.23;;
19879;SDS011;10102;50.828;4.416;2023-11-22T03:42:02;27.98;;;16.60;;
19879;SDS011;10102;50.828;4.416;2023-11-22T03:44:29;31.92;;;16.00;;
19879;SDS011;10102;50.828;4.416;2023-11-22T03:46:55;30.02;;;15.88;;
19879;SDS011;10102;50.828;4.416;2023-11-22T03:49:20;25.50;;;16.48;;
19879;SDS011;10102;50.828;4.416;2023-11-22T03:51:47;29.10;;;16.58;;
19879;SDS011;10102;50.828;4.416;2023-11-22T03:54:13;27.95;;;16.40;;
19879;SDS011;10102;50.828;4.416;2023-11-22T03:56:39;31.90;;;17.00;;
19879;SDS011;10102;50.828;4.416;2023-11-22T03:59:05;30.40;;;17.13;;
19879;SDS011;10102;50.828;4.416;2023-11-22T04:01:30;30.90;;;16.80;;
19879;SDS011;10102;50.828;4.416;2023-11-22T04:03:56;29.15;;;16.13;;
19879;SDS011;10102;50.828;4.416;2023-11-22T04:06:22;29.38;;;16.08;;
19879;SDS011;10102;50.828;4.416;2023-11-22T04:08:48;33.70;;;15.77;;
19879;SDS011;10102;50.828;4.416;2023-11-22T04:11:14;32.78;;;15.93;;
19879;SDS011;10102;50.828;4.416;2023-11-22T04:13:41;30.83;;;16.00;;
19879;SDS011;10102;50.828;4.416;2023-11-22T04:16:07;27.13;;;15.75;;
19879;SDS011;10102;50.828;4.416;2023-11-22T04:18:34;26.58;;;16.17;;
19879;SDS011;10102;50.828;4.416;2023-11-22T04:21:01;26.92;;;14.68;;
19879;SDS011;10102;50.828;4.416;2023-11-22T04:23:29;27.55;;;15.73;;
19879;SDS011;10102;50.828;4.416;2023-11-22T04:25:56;27.30;;;15.55;;
19879;SDS011;10102;50.828;4.416;2023-11-22T04:28:23;27.92;;;16.15;;
19879;SDS011;10102;50.828;4.416;2023-11-22T04:30:50;26.27;;;15.43;;
19879;SDS011;10102;50.828;4.416;2023-11-22T04:33:17;29.00;;;16.15;;
19879;SDS011;10102;50.828;4.416;2023-11-22T04:35:43;29.88;;;17.50;;
19879;SDS011;10102;50.828;4.416;2023-11-22T04:38:09;28.20;;;16.38;;
19879;SDS011;10102;50.828;4.416;2023-11-22T04:40:35;25.77;;;15.80;;
19879;SDS011;10102;50.828;4.416;2023-11-22T04:43:00;30.25;;;16.75;;
19879;SDS011;10102;50.828;4.416;2023-11-22T04:45:27;24.67;;;14.23;;
19879;SDS011;10102;50.828;4.416;2023-11-22T04:47:53;29.85;;;16.95;;
19879;SDS011;10102;50.828;4.416;2023-11-22T04:50:19;24.75;;;15.23;;
19879;SDS011;10102;50.828;4.416;2023-11-22T04:52:44;33.90;;;16.55;;
19879;SDS011;10102;50.828;4.416;2023-11-22T04:55:10;27.75;;;15.98;;
19879;SDS011;10102;50.828;4.416;2023-11-22T04:57:36;33.92;;;18.05;;
19879;SDS011;10102;50.828;4.416;2023-11-22T05:00:02;31.67;;;16.38;;
19879;SDS011;10102;50.828;4.416;2023-11-22T05:02:30;29.83;;;17.55;;
19879;SDS011;10102;50.828;4.416;2023-11-22T05:04:56;27.92;;;16.23;;
19879;SDS011;10102;50.828;4.416;2023-11-22T05:07:22;37.90;;;18.65;;
19879;SDS011;10102;50.828;4.416;2023-11-22T05:09:47;30.85;;;17.48;;
19879;SDS011;10102;50.828;4.416;2023-11-22T05:12:13;32.35;;;17.58;;
19879;SDS011;10102;50.828;4.416;2023-11-22T05:14:42;31.90;;;16.50;;
19879;SDS011;10102;50.828;4.416;2023-11-22T05:17:09;25.02;;;15.60;;
19879;SDS011;10102;50.828;4.416;2023-11-22T05:19:34;28.23;;;15.73;;
19879;SDS011;10102;50.828;4.416;2023-11-22T05:22:00;28.02;;;16.65;;
19879;SDS011;10102;50.828;4.416;2023-11-22T05:24:26;31.48;;;17.25;;
19879;SDS011;10102;50.828;4.416;2023-11-22T05:26:52;27.33;;;16.45;;
19879;SDS011;10102;50.828;4.416;2023-11-22T05:29:17;31.13;;;17.13;;
19879;SDS011;10102;50.828;4.416;2023-11-22T05:31:43;30.63;;;16.33;;
19879;SDS011;10102;50.828;4.416;2023-11-22T05:34:09;32.00;;;17.02;;
19879;SDS011;10102;50.828;4.416;2023-11-22T05:36:35;29.77;;;15.50;;
19879;SDS011;10102;50.828;4.416;2023-11-22T05:39:01;31.50;;;16.20;;
19879;SDS011;10102;50.828;4.416;2023-11-22T05:41:28;27.65;;;16.27;;
19879;SDS011;10102;50.828;4.416;2023-11-22T05:43:54;33.40;;;17.80;;
19879;SDS011;10102;50.828;4.416;2023-11-22T05:46:23;30.73;;;16.00;;
19879;SDS011;10102;50.828;4.416;2023-11-22T05:48:52;28.55;;;16.42;;
19879;SDS011;10102;50.828;4.416;2023-11-22T05:51:18;31.80;;;16.65;;
19879;SDS011;10102;50.828;4.416;2023-11-22T05:53:44;30.70;;;16.33;;
19879;SDS011;10102;50.828;4.416;2023-11-22T05:56:10;34.92;;;17.65;;
19879;SDS011;10102;50.828;4.416;2023-11-22T05:58:36;32.50;;;16.77;;
19879;SDS011;10102;50.828;4.416;2023-11-22T06:01:03;36.72;;;16.15;;
19879;SDS011;10102;50.828;4.416;2023-11-22T06:03:30;32.10;;;17.13;;
19879;SDS011;10102;50.828;4.416;2023-11-22T06:05:57;40.25;;;16.90;;
19879;SDS011;10102;50.828;4.416;2023-11-22T06:10:52;39.78;;;17.60;;
19879;SDS011;10102;50.828;4.416;2023-11-22T06:13:18;33.13;;;16.80;;
19879;SDS011;10102;50.828;4.416;2023-11-22T06:15:44;38.58;;;17.65;;
19879;SDS011;10102;50.828;4.416;2023-11-22T06:18:10;31.55;;;17.30;;
19879;SDS011;10102;50.828;4.416;2023-11-22T06:20:39;39.25;;;18.25;;
19879;SDS011;10102;50.828;4.416;2023-11-22T06:23:08;30.83;;;16.40;;
19879;SDS011;10102;50.828;4.416;2023-11-22T06:25:49;30.52;;;16.17;;
19879;SDS011;10102;50.828;4.416;2023-11-22T06:28:14;36.00;;;18.17;;
19879;SDS011;10102;50.828;4.416;2023-11-22T06:30:40;37.25;;;17.63;;
19879;SDS011;10102;50.828;4.416;2023-11-22T06:33:07;32.75;;;17.63;;
19879;SDS011;10102;50.828;4.416;2023-11-22T06:35:33;34.13;;;17.38;;
19879;SDS011;10102;50.828;4.416;2023-11-22T06:37:58;33.80;;;18.52;;
19879;SDS011;10102;50.828;4.416;2023-11-22T06:40:24;33.45;;;18.35;;
19879;SDS011;10102;50.828;4.416;2023-11-22T06:42:50;30.55;;;16.85;;
19879;SDS011;10102;50.828;4.416;2023-11-22T06:45:16;33.90;;;17.92;;
19879;SDS011;10102;50.828;4.416;2023-11-22T06:47:42;33.05;;;17.35;;
19879;SDS011;10102;50.828;4.416;2023-11-22T06:50:09;32.05;;;17.23;;
19879;SDS011;10102;50.828;4.416;2023-11-22T06:52:36;35.35;;;18.17;;
19879;SDS011;10102;50.828;4.416;2023-11-22T06:55:03;35.42;;;17.58;;
19879;SDS011;10102;50.828;4.416;2023-11-22T06:57:30;31.00;;;16.85;;
19879;SDS011;10102;50.828;4.416;2023-11-22T06:59:56;37.03;;;18.90;;
19879;SDS011;10102;50.828;4.416;2023-11-22T07:02:22;34.75;;;17.92;;
19879;SDS011;10102;50.828;4.416;2023-11-22T07:04:48;31.20;;;17.17;;
19879;SDS011;10102;50.828;4.416;2023-11-22T07:07:14;31.85;;;18.13;;
19879;SDS011;10102;50.828;4.416;2023-11-22T07:09:43;28.58;;;16.48;;
19879;SDS011;10102;50.828;4.416;2023-11-22T07:12:21;31.77;;;16.83;;
19879;SDS011;10102;50.828;4.416;2023-11-22T07:14:47;36.15;;;20.90;;
19879;SDS011;10102;50.828;4.416;2023-11-22T07:17:15;33.88;;;17.65;;
19879;SDS011;10102;50.828;4.416;2023-11-22T07:19:50;34.80;;;18.23;;
19879;SDS011;10102;50.828;4.416;2023-11-22T07:22:17;31.55;;;16.83;;
19879;SDS011;10102;50.828;4.416;2023-11-22T07:24:47;29.17;;;15.93;;
19879;SDS011;10102;50.828;4.416;2023-11-22T07:27:16;36.63;;;16.10;;
19879;SDS011;10102;50.828;4.416;2023-11-22T07:29:43;28.52;;;15.10;;
19879;SDS011;10102;50.828;4.416;2023-11-22T07:32:10;29.17;;;14.43;;
19879;SDS011;10102;50.828;4.416;2023-11-22T07:34:38;27.42;;;14.75;;
19879;SDS011;10102;50.828;4.416;2023-11-22T07:37:05;29.70;;;15.00;;
19879;SDS011;10102;50.828;4.416;2023-11-22T07:39:34;29.70;;;15.85;;
19879;SDS011;10102;50.828;4.416;2023-11-22T07:42:04;29.92;;;16.23;;
19879;SDS011;10102;50.828;4.416;2023-11-22T07:44:34;29.63;;;16.35;;
19879;SDS011;10102;50.828;4.416;2023-11-22T07:47:02;30.27;;;17.20;;
19879;SDS011;10102;50.828;4.416;2023-11-22T07:49:28;29.65;;;15.90;;
19879;SDS011;10102;50.828;4.416;2023-11-22T07:51:57;28.23;;;16.35;;
19879;SDS011;10102;50.828;4.416;2023-11-22T07:54:23;27.45;;;15.13;;
19879;SDS011;10102;50.828;4.416;2023-11-22T07:56:49;28.70;;;15.93;;
19879;SDS011;10102;50.828;4.416;2023-11-22T07:59:14;27.42;;;16.17;;
19879;SDS011;10102;50.828;4.416;2023-11-22T08:01:45;28.13;;;15.43;;
19879;SDS011;10102;50.828;4.416;2023-11-22T08:04:14;30.25;;;15.55;;
19879;SDS011;10102;50.828;4.416;2023-11-22T08:06:43;28.35;;;15.85;;
19879;SDS011;10102;50.828;4.416;2023-11-22T08:09:09;26.85;;;15.20;;
19879;SDS011;10102;50.828;4.416;2023-11-22T08:11:35;26.98;;;15.77;;
19879;SDS011;10102;50.828;4.416;2023-11-22T08:14:03;25.73;;;13.77;;
19879;SDS011;10102;50.828;4.416;2023-11-22T08:16:30;29.88;;;15.57;;
19879;SDS011;10102;50.828;4.416;2023-11-22T08:18:57;25.08;;;14.55;;
19879;SDS011;10102;50.828;4.416;2023-11-22T08:21:23;26.88;;;15.07;;
19879;SDS011;10102;50.828;4.416;2023-11-22T08:23:49;30.40;;;15.40;;
19879;SDS011;10102;50.828;4.416;2023-11-22T08:26:15;29.25;;;15.27;;
19879;SDS011;10102;50.828;4.416;2023-11-22T08:28:42;30.27;;;15.65;;
19879;SDS011;10102;50.828;4.416;2023-11-22T08:31:07;31.45;;;15.75;;
19879;SDS011;10102;50.828;4.416;2023-11-22T08:33:34;28.23;;;15.32;;
19879;SDS011;10102;50.828;4.416;2023-11-22T08:36:04;25.48;;;14.65;;
19879;SDS011;10102;50.828;4.416;2023-11-22T08:38:34;28.38;;;16.25;;
19879;SDS011;10102;50.828;4.416;2023-11-22T08:41:04;32.05;;;15.93;;
19879;SDS011;10102;50.828;4.416;2023-11-22T08:43:31;29.45;;;15.75;;
19879;SDS011;10102;50.828;4.416;2023-11-22T08:45:57;29.15;;;15.98;;
19879;SDS011;10102;50.828;4.416;2023-11-22T08:48:24;27.63;;;15.68;;
19879;SDS011;10102;50.828;4.416;2023-11-22T08:50:49;30.27;;;16.33;;
19879;SDS011;10102;50.828;4.416;2023-11-22T08:53:15;29.77;;;15.45;;
19879;SDS011;10102;50.828;4.416;2023-11-22T08:55:42;29.25;;;15.93;;
19879;SDS011;10102;50.828;4.416;2023-11-22T08:58:11;30.63;;;15.77;;
19879;SDS011;10102;50.828;4.416;2023-11-22T09:00:38;33.08;;;16.73;;
19879;SDS011;10102;50.828;4.416;2023-11-22T09:03:08;32.30;;;16.48;;
19879;SDS011;10102;50.828;4.416;2023-11-22T09:05:37;32.15;;;16.25;;
19879;SDS011;10102;50.828;4.416;2023-11-22T09:08:03;28.75;;;15.88;;
19879;SDS011;10102;50.828;4.416;2023-11-22T09:12:58;29.23;;;14.57;;
19879;SDS011;10102;50.828;4.416;2023-11-22T09:15:25;27.48;;;16.13;;
19879;SDS011;10102;50.828;4.416;2023-11-22T09:17:55;30.52;;;14.73;;
19879;SDS011;10102;50.828;4.416;2023-11-22T09:20:22;26.40;;;13.85;;
19879;SDS011;10102;50.828;4.416;2023-11-22T09:22:49;28.90;;;15.10;;
19879;SDS011;10102;50.828;4.416;2023-11-22T09:25:25;25.27;;;14.30;;
19879;SDS011;10102;50.828;4.416;2023-11-22T09:27:57;25.00;;;13.95;;
19879;SDS011;10102;50.828;4.416;2023-11-22T09:30:27;26.95;;;13.75;;
19879;SDS011;10102;50.828;4.416;2023-11-22T09:33:04;24.55;;;13.50;;
19879;SDS011;10102;50.828;4.416;2023-11-22T09:35:33;28.90;;;14.45;;
19879;SDS011;10102;50.828;4.416;2023-11-22T09:38:04;25.25;;;14.63;;
19879;SDS011;10102;50.828;4.416;2023-11-22T09:40:34;25.70;;;14.70;;
19879;SDS011;10102;50.828;4.416;2023-11-22T09:43:01;26.45;;;14.60;;
19879;SDS011;10102;50.828;4.416;2023-11-22T09:45:28;26.80;;;15.07;;
19879;SDS011;10102;50.828;4.416;2023-11-22T09:47:55;26.00;;;15.10;;
19879;SDS011;10102;50.828;4.416;2023-11-22T09:50:34;24.25;;;15.32;;
19879;SDS011;10102;50.828;4.416;2023-11-22T09:53:09;29.48;;;15.82;;
19879;SDS011;10102;50.828;4.416;2023-11-22T09:55:38;29.63;;;16.05;;
19879;SDS011;10102;50.828;4.416;2023-11-22T09:58:10;26.60;;;15.40;;
19879;SDS011;10102;50.828;4.416;2023-11-22T10:00:38;31.27;;;16.15;;
19879;SDS011;10102;50.828;4.416;2023-11-22T10:03:06;29.45;;;16.58;;
19879;SDS011;10102;50.828;4.416;2023-11-22T10:05:32;23.48;;;14.07;;
19879;SDS011;10102;50.828;4.416;2023-11-22T10:07:58;26.35;;;15.07;;
19879;SDS011;10102;50.828;4.416;2023-11-22T10:10:25;28.35;;;15.68;;
19879;SDS011;10102;50.828;4.416;2023-11-22T10:12:54;27.92;;;16.42;;
19879;SDS011;10102;50.828;4.416;2023-11-22T10:15:21;29.38;;;14.63;;
19879;SDS011;10102;50.828;4.416;2023-11-22T10:17:57;24.05;;;15.18;;
19879;SDS011;10102;50.828;4.416;2023-11-22T10:20:35;24.85;;;15.02;;
19879;SDS011;10102;50.828;4.416;2023-11-22T10:23:01;25.90;;;14.68;;
19879;SDS011;10102;50.828;4.416;2023-11-22T10:25:28;22.88;;;13.90;;
19879;SDS011;10102;50.828;4.416;2023-11-22T10:27:54;27.83;;;15.18;;
19879;SDS011;10102;50.828;4.416;2023-11-22T10:30:20;28.83;;;15.10;;
19879;SDS011;10102;50.828;4.416;2023-11-22T10:32:46;32.25;;;15.75;;
19879;SDS011;10102;50.828;4.416;2023-11-22T10:35:12;26.60;;;15.73;;
19879;SDS011;10102;50.828;4.416;2023-11-22T10:37:41;25.13;;;14.32;;
19879;SDS011;10102;50.828;4.416;2023-11-22T10:40:10;36.10;;;16.15;;
19879;SDS011;10102;50.828;4.416;2023-11-22T10:42:38;34.20;;;17.08;;
19879;SDS011;10102;50.828;4.416;2023-11-22T10:45:06;27.58;;;14.98;;
19879;SDS011;10102;50.828;4.416;2023-11-22T10:47:35;27.80;;;15.65;;
19879;SDS011;10102;50.828;4.416;2023-11-22T10:50:05;26.42;;;16.33;;
19879;SDS011;10102;50.828;4.416;2023-11-22T10:52:32;27.45;;;16.13;;
19879;SDS011;10102;50.828;4.416;2023-11-22T10:55:03;40.35;;;16.48;;
19879;SDS011;10102;50.828;4.416;2023-11-22T10:57:32;29.58;;;15.38;;
19879;SDS011;10102;50.828;4.416;2023-11-22T11:00:03;25.02;;;14.57;;
19879;SDS011;10102;50.828;4.416;2023-11-22T11:02:36;42.85;;;16.00;;
19879;SDS011;10102;50.828;4.416;2023-11-22T11:05:27;31.13;;;15.30;;
19879;SDS011;10102;50.828;4.416;2023-11-22T11:08:00;32.00;;;15.38;;
19879;SDS011;10102;50.828;4.416;2023-11-22T11:10:37;26.50;;;14.45;;
19879;SDS011;10102;50.828;4.416;2023-11-22T11:13:08;20.98;;;12.00;;
19879;SDS011;10102;50.828;4.416;2023-11-22T11:15:38;22.75;;;13.57;;
19879;SDS011;10102;50.828;4.416;2023-11-22T11:18:07;22.77;;;13.48;;
19879;SDS011;10102;50.828;4.416;2023-11-22T11:20:45;18.02;;;10.38;;
19879;SDS011;10102;50.828;4.416;2023-11-22T11:23:16;19.70;;;11.82;;
19879;SDS011;10102;50.828;4.416;2023-11-22T11:26:27;17.50;;;11.65;;
19879;SDS011;10102;50.828;4.416;2023-11-22T11:28:43;17.00;;;11.32;;
19879;SDS011;10102;50.828;4.416;2023-11-22T11:31:09;16.45;;;10.95;;
19879;SDS011;10102;50.828;4.416;2023-11-22T11:33:50;15.98;;;10.93;;
19879;SDS011;10102;50.828;4.416;2023-11-22T11:36:25;18.15;;;11.90;;
19879;SDS011;10102;50.828;4.416;2023-11-22T11:38:53;22.42;;;11.45;;
19879;SDS011;10102;50.828;4.416;2023-11-22T11:41:24;16.55;;;11.02;;
19879;SDS011;10102;50.828;4.416;2023-11-22T11:43:52;17.52;;;11.05;;
19879;SDS011;10102;50.828;4.416;2023-11-22T11:46:18;18.38;;;10.52;;
19879;SDS011;10102;50.828;4.416;2023-11-22T11:48:49;19.77;;;13.27;;
19879;SDS011;10102;50.828;4.416;2023-11-22T11:51:17;16.60;;;10.65;;
19879;SDS011;10102;50.828;4.416;2023-11-22T11:53:46;18.60;;;10.90;;
19879;SDS011;10102;50.828;4.416;2023-11-22T11:56:13;14.13;;;10.95;;
19879;SDS011;10102;50.828;4.416;2023-11-22T11:58:40;19.17;;;11.63;;
19879;SDS011;10102;50.828;4.416;2023-11-22T12:01:14;16.80;;;11.73;;
19879;SDS011;10102;50.828;4.416;2023-11-22T12:03:47;17.85;;;11.55;;
19879;SDS011;10102;50.828;4.416;2023-11-22T12:06:14;18.30;;;12.13;;
19879;SDS011;10102;50.828;4.416;2023-11-22T12:08:41;13.85;;;10.57;;
19879;SDS011;10102;50.828;4.416;2023-11-22T12:11:07;19.05;;;11.68;;
19879;SDS011;10102;50.828;4.416;2023-11-22T12:13:33;20.08;;;11.85;;
19879;SDS011;10102;50.828;4.416;2023-11-22T12:16:03;15.20;;;11.18;;
19879;SDS011;10102;50.828;4.416;2023-11-22T12:18:48;24.52;;;12.85;;
19879;SDS011;10102;50.828;4.416;2023-11-22T12:21:15;17.73;;;11.38;;
19879;SDS011;10102;50.828;4.416;2023-11-22T12:23:42;17.65;;;11.40;;
19879;SDS011;10102;50.828;4.416;2023-11-22T12:26:14;19.42;;;12.07;;
19879;SDS011;10102;50.828;4.416;2023-11-22T12:28:41;19.02;;;11.88;;
19879;SDS011;10102;50.828;4.416;2023-11-22T12:31:12;16.85;;;11.82;;
19879;SDS011;10102;50.828;4.416;2023-11-22T12:33:40;18.73;;;11.02;;
19879;SDS011;10102;50.828;4.416;2023-11-22T12:36:07;16.50;;;9.60;;
19879;SDS011;10102;50.828;4.416;2023-11-22T12:38:35;16.27;;;11.15;;
19879;SDS011;10102;50.828;4.416;2023-11-22T12:41:02;22.77;;;10.52;;
19879;SDS011;10102;50.828;4.416;2023-11-22T12:43:28;18.73;;;10.38;;
19879;SDS011;10102;50.828;4.416;2023-11-22T12:46:01;20.75;;;10.50;;
19879;SDS011;10102;50.828;4.416;2023-11-22T12:48:28;15.82;;;10.68;;
19879;SDS011;10102;50.828;4.416;2023-11-22T12:50:55;19.95;;;11.27;;
19879;SDS011;10102;50.828;4.416;2023-11-22T12:53:24;15.30;;;10.35;;
19879;SDS011;10102;50.828;4.416;2023-11-22T12:55:52;16.15;;;10.27;;
19879;SDS011;10102;50.828;4.416;2023-11-22T12:58:19;19.15;;;11.52;;
19879;SDS011;10102;50.828;4.416;2023-11-22T13:00:46;20.27;;;12.77;;
19879;SDS011;10102;50.828;4.416;2023-11-22T13:03:13;23.40;;;11.63;;
19879;SDS011;10102;50.828;4.416;2023-11-22T13:05:40;18.85;;;12.02;;
19879;SDS011;10102;50.828;4.416;2023-11-22T13:08:10;19.48;;;11.88;;
19879;SDS011;10102;50.828;4.416;2023-11-22T13:10:48;21.23;;;11.27;;
19879;SDS011;10102;50.828;4.416;2023-11-22T13:13:22;19.10;;;11.95;;
19879;SDS011;10102;50.828;4.416;2023-11-22T13:15:48;24.77;;;11.55;;
19879;SDS011;10102;50.828;4.416;2023-11-22T13:18:15;19.17;;;11.48;;
19879;SDS011;10102;50.828;4.416;2023-11-22T13:20:41;20.58;;;12.68;;
19879;SDS011;10102;50.828;4.416;2023-11-22T13:23:08;21.63;;;12.55;;
19879;SDS011;10102;50.828;4.416;2023-11-22T13:25:34;23.88;;;13.15;;
19879;SDS011;10102;50.828;4.416;2023-11-22T13:27:59;19.95;;;11.77;;
19879;SDS011;10102;50.828;4.416;2023-11-22T13:30:25;22.90;;;13.40;;
19879;SDS011;10102;50.828;4.416;2023-11-22T13:32:55;23.67;;;13.88;;
19879;SDS011;10102;50.828;4.416;2023-11-22T13:35:24;25.50;;;13.43;;
19879;SDS011;10102;50.828;4.416;2023-11-22T13:37:52;30.08;;;15.10;;
19879;SDS011;10102;50.828;4.416;2023-11-22T13:40:19;27.67;;;15.50;;
19879;SDS011;10102;50.828;4.416;2023-11-22T13:42:50;25.60;;;14.23;;
19879;SDS011;10102;50.828;4.416;2023-11-22T13:45:18;26.20;;;15.13;;
19879;SDS011;10102;50.828;4.416;2023-11-22T13:47:45;24.50;;;14.38;;
19879;SDS011;10102;50.828;4.416;2023-11-22T13:50:15;36.45;;;15.15;;
19879;SDS011;10102;50.828;4.416;2023-11-22T13:52:46;26.17;;;15.00;;
19879;SDS011;10102;50.828;4.416;2023-11-22T13:55:13;21.67;;;14.43;;
19879;SDS011;10102;50.828;4.416;2023-11-22T13:57:40;31.48;;;15.15;;
19879;SDS011;10102;50.828;4.416;2023-11-22T14:00:06;24.85;;;14.13;;
19879;SDS011;10102;50.828;4.416;2023-11-22T14:02:35;24.33;;;14.07;;
19879;SDS011;10102;50.828;4.416;2023-11-22T14:05:01;24.55;;;13.35;;
19879;SDS011;10102;50.828;4.416;2023-11-22T14:07:33;22.25;;;13.25;;
19879;SDS011;10102;50.828;4.416;2023-11-22T14:10:02;21.70;;;12.20;;
19879;SDS011;10102;50.828;4.416;2023-11-22T14:12:29;22.35;;;12.38;;
19879;SDS011;10102;50.828;4.416;2023-11-22T14:14:56;21.15;;;12.15;;
19879;SDS011;10102;50.828;4.416;2023-11-22T14:17:23;19.25;;;11.88;;
19879;SDS011;10102;50.828;4.416;2023-11-22T14:19:49;18.55;;;11.77;;
19879;SDS011;10102;50.828;4.416;2023-11-22T14:22:15;23.35;;;12.57;;
19879;SDS011;10102;50.828;4.416;2023-11-22T14:24:43;18.55;;;12.02;;
19879;SDS011;10102;50.828;4.416;2023-11-22T14:27:10;22.35;;;12.10;;
19879;SDS011;10102;50.828;4.416;2023-11-22T14:29:37;25.13;;;11.82;;